createdAt,value
2023-02-09T00:02:04.581Z,-2.70
2023-02-09T00:07:07.914Z,-2.60
2023-02-09T00:12:30.577Z,-2.60
2023-02-09T00:17:36.140Z,-2.64
2023-02-09T00:22:39.249Z,-2.70
2023-02-09T00:27:42.451Z,-2.70
2023-02-09T00:32:45.556Z,-2.70
2023-02-09T00:37:48.662Z,-2.70
2023-02-09T00:42:51.872Z,-2.70
2023-02-09T00:47:55.965Z,-2.70
2023-02-09T00:52:59.106Z,-2.68
2023-02-09T00:58:02.355Z,-2.60
2023-02-09T01:03:05.527Z,-2.40
2023-02-09T01:08:08.982Z,-2.20
2023-02-09T01:13:12.141Z,-2.20
2023-02-09T01:18:15.662Z,-2.20
2023-02-09T01:23:18.867Z,-2.20
2023-02-09T01:28:22.149Z,-2.24
2023-02-09T01:33:25.584Z,-2.30
2023-02-09T01:38:29.520Z,-2.30
2023-02-09T01:44:00.923Z,-2.30
2023-02-09T01:49:21.582Z,-2.14
2023-02-09T01:54:27.144Z,-2.10
2023-02-09T01:59:33.738Z,-2.20
2023-02-09T02:04:38.265Z,-2.20
2023-02-09T02:09:43.374Z,-2.30
2023-02-09T02:14:46.658Z,-2.40
2023-02-09T02:20:31.135Z,-2.40
2023-02-09T02:26:20.829Z,-2.44
2023-02-09T02:31:51.626Z,-2.50
2023-02-09T02:37:11.688Z,-2.50
2023-02-09T02:42:44.489Z,-2.60
2023-02-09T02:48:00.941Z,-2.42
2023-02-09T02:53:08.715Z,-2.40
2023-02-09T02:58:16.079Z,-2.40
2023-02-09T03:03:24.929Z,-2.50
2023-02-09T03:08:27.986Z,-2.54
2023-02-09T03:14:10.928Z,-2.60
2023-02-09T03:20:03.196Z,-2.68
2023-02-09T03:25:40.712Z,-2.70
2023-02-09T03:30:50.161Z,-2.80
2023-02-09T03:36:00.192Z,-2.80
2023-02-09T03:41:03.538Z,-2.90
2023-02-09T03:46:06.667Z,-2.90
2023-02-09T03:51:10.670Z,-2.98
2023-02-09T03:56:13.674Z,-2.80
2023-02-09T04:01:16.847Z,-2.78
2023-02-09T04:06:19.982Z,-2.70
2023-02-09T04:11:23.623Z,-2.80
2023-02-09T04:16:27.301Z,-2.80
2023-02-09T04:21:31.150Z,-2.90
2023-02-09T04:26:34.768Z,-2.92
2023-02-09T04:31:38.014Z,-3.00
2023-02-09T04:36:41.186Z,-3.02
2023-02-09T04:41:44.287Z,-3.00
2023-02-09T04:46:47.411Z,-2.90
2023-02-09T04:51:50.506Z,-2.82
2023-02-09T04:57:13.517Z,-2.90
2023-02-09T05:02:17.803Z,-2.92
2023-02-09T05:07:21.016Z,-2.90
2023-02-09T05:12:24.128Z,-2.90
2023-02-09T05:17:27.097Z,-2.90
2023-02-09T05:22:30.346Z,-2.92
2023-02-09T05:27:33.444Z,-2.90
2023-02-09T05:32:36.561Z,-2.80
2023-02-09T05:37:39.761Z,-2.80
2023-02-09T05:42:43.173Z,-2.80
2023-02-09T05:47:46.393Z,-2.88
2023-02-09T05:52:49.704Z,-2.88
2023-02-09T05:57:52.910Z,-2.90
2023-02-09T06:02:56.619Z,-2.92
2023-02-09T06:07:59.752Z,-3.00
2023-02-09T06:13:03.133Z,-3.00
2023-02-09T06:18:06.163Z,-2.84
2023-02-09T06:23:09.452Z,-2.80
2023-02-09T06:28:12.716Z,-2.80
2023-02-09T06:33:15.872Z,-2.80
2023-02-09T06:38:19.527Z,-2.86
2023-02-09T06:43:22.594Z,-2.86
2023-02-09T06:48:25.713Z,-2.80
2023-02-09T06:53:29.117Z,-2.80
2023-02-09T06:58:32.853Z,-2.70
2023-02-09T07:03:38.305Z,-2.68
2023-02-09T07:08:42.941Z,-2.60
2023-02-09T07:13:47.076Z,-2.50
2023-02-09T07:18:50.177Z,-2.36
2023-02-09T07:23:56.008Z,-2.24
2023-02-09T07:28:59.049Z,-2.20
2023-02-09T07:34:02.301Z,-2.20
2023-02-09T07:39:05.589Z,-2.16
2023-02-09T07:44:12.284Z,-2.10
2023-02-09T07:49:15.464Z,-2.00
2023-02-09T07:54:18.686Z,-2.00
2023-02-09T07:59:21.881Z,-1.90
2023-02-09T08:04:25.010Z,-1.62
2023-02-09T08:09:29.537Z,-1.50
2023-02-09T08:14:44.601Z,-1.40
2023-02-09T08:20:09.535Z,-1.30
2023-02-09T08:25:16.835Z,-1.24
2023-02-09T08:30:20.884Z,-1.20
2023-02-09T08:35:23.995Z,-1.20
2023-02-09T08:40:27.290Z,-1.10
2023-02-09T08:45:30.688Z,-1.08
2023-02-09T08:50:35.454Z,-1.00
2023-02-09T08:55:39.380Z,-0.90
2023-02-09T09:00:42.499Z,-0.70
2023-02-09T09:05:46.047Z,-0.50
2023-02-09T09:10:49.412Z,-0.32
2023-02-09T09:15:55.476Z,-0.20
2023-02-09T09:20:58.697Z,-0.08
2023-02-09T09:26:03.539Z,0.06
2023-02-09T09:31:13.382Z,0.14
2023-02-09T09:36:16.720Z,0.24
2023-02-09T09:41:40.207Z,0.36
2023-02-09T09:46:48.731Z,0.50
2023-02-09T09:52:20.460Z,0.54
2023-02-09T09:57:30.580Z,0.60
2023-02-09T10:02:34.936Z,0.60
2023-02-09T10:07:43.164Z,0.60
2023-02-09T10:12:51.169Z,0.64
2023-02-09T10:17:56.718Z,0.70
2023-02-09T10:23:00.258Z,0.80
2023-02-09T10:28:06.701Z,0.80
2023-02-09T10:33:15.740Z,0.90
2023-02-09T10:38:24.100Z,0.92
2023-02-09T10:43:33.928Z,0.98
2023-02-09T10:48:44.194Z,1.00
2023-02-09T10:54:20.425Z,1.12
2023-02-09T10:59:26.096Z,1.30
2023-02-09T11:04:41.248Z,1.40
2023-02-09T11:09:51.479Z,1.40
2023-02-09T11:14:55.791Z,1.50
2023-02-09T11:20:10.884Z,1.50
2023-02-09T11:25:31.251Z,1.60
2023-02-09T11:31:14.679Z,1.60
2023-02-09T11:36:42.864Z,1.48
2023-02-09T11:42:14.319Z,1.20
2023-02-09T11:47:58.313Z,0.96
2023-02-09T11:53:30.555Z,0.80
2023-02-09T11:58:42.160Z,0.78
2023-02-09T12:04:05.137Z,0.80
2023-02-09T12:09:25.052Z,0.90
2023-02-09T12:14:46.888Z,1.00
2023-02-09T12:20:00.573Z,1.00
2023-02-09T12:25:06.103Z,1.14
2023-02-09T12:30:40.620Z,1.26
2023-02-09T12:35:57.664Z,1.20
2023-02-09T12:41:07.388Z,1.20
2023-02-09T12:46:28.712Z,1.30
2023-02-09T12:51:55.804Z,1.40
2023-02-09T12:57:17.262Z,1.50
2023-02-09T13:02:50.137Z,1.78
2023-02-09T13:08:12.126Z,2.04
2023-02-09T13:13:26.170Z,2.30
2023-02-09T13:19:00.943Z,2.40
2023-02-09T13:24:14.023Z,2.50
2023-02-09T13:29:30.403Z,2.58
2023-02-09T13:34:48.925Z,2.40
2023-02-09T13:40:01.062Z,2.30
2023-02-09T13:45:18.723Z,2.44
2023-02-09T13:50:27.697Z,2.30
2023-02-09T13:55:32.102Z,2.30
2023-02-09T14:00:42.666Z,2.20
2023-02-09T14:06:03.306Z,2.20
2023-02-09T14:11:28.059Z,2.30
2023-02-09T14:16:47.996Z,2.30
2023-02-09T14:21:55.833Z,2.40
2023-02-09T14:27:20.443Z,2.30
2023-02-09T14:32:40.512Z,2.20
2023-02-09T14:37:45.162Z,2.00
2023-02-09T14:43:09.201Z,1.80
2023-02-09T14:48:25.224Z,1.66
2023-02-09T14:53:31.838Z,1.56
2023-02-09T14:58:35.204Z,1.40
2023-02-09T15:03:38.815Z,1.30
2023-02-09T15:08:42.579Z,1.20
2023-02-09T15:13:55.080Z,1.10
2023-02-09T15:18:59.197Z,0.96
2023-02-09T15:24:02.416Z,0.82
2023-02-09T15:29:15.846Z,0.74
2023-02-09T15:34:18.982Z,0.66
2023-02-09T15:39:28.617Z,0.60
2023-02-09T15:44:50.461Z,0.50
2023-02-09T15:49:53.882Z,0.40
2023-02-09T15:54:57.107Z,0.30
2023-02-09T16:00:00.348Z,0.28
2023-02-09T16:05:04.528Z,0.18
2023-02-09T16:10:22.683Z,0.10
2023-02-09T16:15:27.664Z,0.10
2023-02-09T16:20:31.690Z,0.20
2023-02-09T16:25:35.015Z,0.20
2023-02-09T16:30:55.908Z,0.20
2023-02-09T16:36:02.285Z,0.12
2023-02-09T16:41:05.737Z,0.10
2023-02-09T16:46:12.805Z,0.00
2023-02-09T16:51:16.654Z,0.00
2023-02-09T16:56:20.791Z,0.00
2023-02-09T17:01:24.270Z,-0.10
2023-02-09T17:06:30.241Z,-0.10
2023-02-09T17:11:33.446Z,-0.10
2023-02-09T17:16:43.467Z,-0.14
2023-02-09T17:21:46.621Z,-0.20
2023-02-09T17:26:50.060Z,-0.24
2023-02-09T17:31:54.034Z,-0.20
2023-02-09T17:36:58.810Z,-0.20
2023-02-09T17:42:02.120Z,-0.10
2023-02-09T17:47:05.435Z,-0.10
2023-02-09T17:52:18.664Z,-0.10
2023-02-09T17:57:21.892Z,-0.20
2023-02-09T18:02:25.184Z,-0.20
2023-02-09T18:07:28.615Z,-0.20
2023-02-09T18:12:31.716Z,-0.22
2023-02-09T18:17:35.031Z,-0.20
2023-02-09T18:22:38.245Z,-0.20
2023-02-09T18:27:41.423Z,-0.20
2023-02-09T18:32:44.756Z,-0.20
2023-02-09T18:37:49.335Z,-0.10
2023-02-09T18:42:53.738Z,-0.10
2023-02-09T18:47:57.982Z,-0.10
2023-02-09T18:53:03.797Z,-0.10
2023-02-09T18:58:09.605Z,-0.20
2023-02-09T19:03:17.207Z,-0.20
2023-02-09T19:08:20.315Z,-0.30
2023-02-09T19:13:23.532Z,-0.30
2023-02-09T19:18:27.785Z,-0.36
2023-02-09T19:23:31.091Z,-0.30
2023-02-09T19:28:35.355Z,-0.22
2023-02-09T19:33:38.717Z,-0.20
2023-02-09T19:38:41.828Z,-0.30
2023-02-09T19:43:45.102Z,-0.30
2023-02-09T19:48:48.662Z,-0.30
2023-02-09T19:53:51.868Z,-0.36
2023-02-09T19:58:55.067Z,-0.30
2023-02-09T20:03:59.120Z,-0.20
2023-02-09T20:09:03.039Z,-0.30
2023-02-09T20:14:06.242Z,-0.30
2023-02-09T20:19:09.446Z,-0.30
2023-02-09T20:24:14.811Z,-0.40
2023-02-09T20:29:19.353Z,-0.40
2023-02-09T20:34:22.564Z,-0.42
2023-02-09T20:39:25.976Z,-0.50
2023-02-09T20:44:48.342Z,-0.42
2023-02-09T20:49:51.838Z,-0.40
2023-02-09T20:54:55.471Z,-0.40
2023-02-09T21:00:00.653Z,-0.48
2023-02-09T21:05:08.047Z,-0.50
2023-02-09T21:10:13.115Z,-0.60
2023-02-09T21:15:16.722Z,-0.60
2023-02-09T21:20:19.899Z,-0.60
2023-02-09T21:25:23.095Z,-0.68
2023-02-09T21:30:28.046Z,-0.60
2023-02-09T21:35:31.157Z,-0.56
2023-02-09T21:40:34.776Z,-0.60
2023-02-09T21:45:39.845Z,-0.64
2023-02-09T21:50:42.952Z,-0.70
2023-02-09T21:55:46.087Z,-0.70
2023-02-09T22:00:58.168Z,-0.80
2023-02-09T22:06:02.485Z,-0.80
2023-02-09T22:11:07.641Z,-0.80
2023-02-09T22:16:20.078Z,-0.80
2023-02-09T22:21:23.177Z,-0.70
2023-02-09T22:26:26.610Z,-0.80
2023-02-09T22:31:29.689Z,-0.80
2023-02-09T22:36:34.020Z,-0.90
2023-02-09T22:41:37.539Z,-0.90
2023-02-09T22:46:44.096Z,-0.96
2023-02-09T22:51:50.024Z,-1.00
2023-02-09T22:56:53.452Z,-1.00
2023-02-09T23:01:56.655Z,-1.00
2023-02-09T23:07:01.716Z,-0.94
2023-02-09T23:12:05.652Z,-0.90
2023-02-09T23:17:08.742Z,-1.00
2023-02-09T23:22:11.929Z,-1.00
2023-02-09T23:27:15.245Z,-1.06
2023-02-09T23:32:18.548Z,-1.10
2023-02-09T23:37:36.806Z,-1.14
2023-02-09T23:42:40.725Z,-1.20
2023-02-09T23:47:43.933Z,-1.10
2023-02-09T23:52:47.246Z,-1.00
2023-02-09T23:57:50.395Z,-1.00
